<?xml version="1.0" encoding="UTF-8"?>
<gpx version="1.1" creator="2bulu-scraper" xmlns="http://www.topografix.com/GPX/1/1">
  <metadata><name>内江资中五十三梯小环线</name><desc>source: 2bulu.com trackId=77529438; exported 2026-09-01T17:51:29.668Z</desc>
    <bounds minlat="29.6756197" minlon="104.7341417" maxlat="29.6842769" maxlon="104.7391466"/>
    <link href="https://www.2bulu.com/track/t-OeoWiWayVfHp%252FR2KBg5Tzw%253D%253D.htm"><text>2bulu 源页面</text></link>
  </metadata>
  <wpt lat="29.6758732" lon="104.7359313"><ele>543</ele><name>起点
        </name></wpt>
  <wpt lat="29.6758732" lon="104.7359313"><ele>543</ele><name>
        </name></wpt>
  <wpt lat="29.6772387" lon="104.7365385"><ele>532</ele><name>
        </name></wpt>
  <wpt lat="29.6789435" lon="104.7378436"><ele>526</ele><name>可以绕行，不用钻竹林
        </name></wpt>
  <wpt lat="29.6793864" lon="104.738669"><ele>558</ele><name>
        </name></wpt>
  <wpt lat="29.6793864" lon="104.738669"><ele>558</ele><name>开始走石梯
        </name></wpt>
  <wpt lat="29.6801517" lon="104.7383572"><ele>583</ele><name>
        </name></wpt>
  <wpt lat="29.6804311" lon="104.7382968"><ele>594</ele><name>
        </name></wpt>
  <wpt lat="29.6815126" lon="104.7384394"><ele>604</ele><name>
        </name></wpt>
  <wpt lat="29.6816897" lon="104.7386032"><ele>611</ele><name>
        </name></wpt>
  <wpt lat="29.6816897" lon="104.7386032"><ele>611</ele><name>百步梯
        </name></wpt>
  <wpt lat="29.6821047" lon="104.7388113"><ele>633</ele><name>在松树林穿梭
        </name></wpt>
  <wpt lat="29.6810627" lon="104.7352403"><ele>626</ele><name>沿着大路走
        </name></wpt>
  <wpt lat="29.6792186" lon="104.7341471"><ele>604</ele><name>寺庙
        </name></wpt>
  <trk><name>内江资中五十三梯小环线</name>
      <trkseg>
        <trkpt lat="29.6758732" lon="104.7359313"><ele>543.47</ele><time>2026-01-09T21:38:10.000Z</time></trkpt>
        <trkpt lat="29.6758378" lon="104.7360226"><ele>543.47</ele><time>2026-01-09T21:38:32.000Z</time></trkpt>
        <trkpt lat="29.6757935" lon="104.7361302"><ele>543.78</ele><time>2026-01-09T21:38:46.000Z</time></trkpt>
        <trkpt lat="29.6757408" lon="104.7362321"><ele>544.21</ele><time>2026-01-09T21:38:56.000Z</time></trkpt>
        <trkpt lat="29.6756809" lon="104.7363193"><ele>544.81</ele><time>2026-01-09T21:39:08.000Z</time></trkpt>
        <trkpt lat="29.6756197" lon="104.7364137"><ele>545.34</ele><time>2026-01-09T21:39:24.000Z</time></trkpt>
        <trkpt lat="29.6756507" lon="104.7365088"><ele>546.28</ele><time>2026-01-09T21:39:38.000Z</time></trkpt>
        <trkpt lat="29.6757051" lon="104.7366142"><ele>546.88</ele><time>2026-01-09T21:39:50.000Z</time></trkpt>
        <trkpt lat="29.67574" lon="104.7367187"><ele>546.16</ele><time>2026-01-09T21:40:00.000Z</time></trkpt>
        <trkpt lat="29.6757481" lon="104.7367664"><ele>545.64</ele><time>2026-01-09T21:40:04.000Z</time></trkpt>
        <trkpt lat="29.675811" lon="104.7368297"><ele>545.37</ele><time>2026-01-09T21:40:54.000Z</time></trkpt>
        <trkpt lat="29.6759026" lon="104.7368367"><ele>543.3</ele><time>2026-01-09T21:41:04.000Z</time></trkpt>
        <trkpt lat="29.6759563" lon="104.7367381"><ele>541.5</ele><time>2026-01-09T21:41:14.000Z</time></trkpt>
        <trkpt lat="29.6759464" lon="104.7366057"><ele>540.32</ele><time>2026-01-09T21:41:24.000Z</time></trkpt>
        <trkpt lat="29.6759491" lon="104.736467"><ele>539.29</ele><time>2026-01-09T21:41:34.000Z</time></trkpt>
        <trkpt lat="29.675999" lon="104.7363895"><ele>537.74</ele><time>2026-01-09T21:41:42.000Z</time></trkpt>
        <trkpt lat="29.6760765" lon="104.7363265"><ele>535.78</ele><time>2026-01-09T21:41:54.000Z</time></trkpt>
        <trkpt lat="29.6761722" lon="104.7363346"><ele>533.92</ele><time>2026-01-09T21:42:04.000Z</time></trkpt>
        <trkpt lat="29.6762829" lon="104.736362"><ele>532.35</ele><time>2026-01-09T21:42:14.000Z</time></trkpt>
        <trkpt lat="29.6763967" lon="104.7363902"><ele>530.87</ele><time>2026-01-09T21:42:24.000Z</time></trkpt>
        <trkpt lat="29.6764976" lon="104.7364274"><ele>530</ele><time>2026-01-09T21:42:34.000Z</time></trkpt>
        <trkpt lat="29.676586" lon="104.7364907"><ele>529.13</ele><time>2026-01-09T21:42:44.000Z</time></trkpt>
        <trkpt lat="29.6766756" lon="104.736561"><ele>528.75</ele><time>2026-01-09T21:42:54.000Z</time></trkpt>
        <trkpt lat="29.6767702" lon="104.7366185"><ele>528.79</ele><time>2026-01-09T21:43:04.000Z</time></trkpt>
        <trkpt lat="29.6768687" lon="104.736594"><ele>529.15</ele><time>2026-01-09T21:43:14.000Z</time></trkpt>
        <trkpt lat="29.6769569" lon="104.7365169"><ele>529.91</ele><time>2026-01-09T21:43:24.000Z</time></trkpt>
        <trkpt lat="29.6770293" lon="104.7364317"><ele>530.78</ele><time>2026-01-09T21:43:32.000Z</time></trkpt>
        <trkpt lat="29.6771118" lon="104.7363895"><ele>530.8</ele><time>2026-01-09T21:43:40.000Z</time></trkpt>
        <trkpt lat="29.677179" lon="104.7364518"><ele>530.43</ele><time>2026-01-09T21:43:48.000Z</time></trkpt>
        <trkpt lat="29.6772387" lon="104.7365385"><ele>530.59</ele><time>2026-01-09T21:43:58.000Z</time></trkpt>
        <trkpt lat="29.6773283" lon="104.7365922"><ele>531.18</ele><time>2026-01-09T21:44:30.000Z</time></trkpt>
        <trkpt lat="29.6774087" lon="104.7366519"><ele>530.62</ele><time>2026-01-09T21:44:42.000Z</time></trkpt>
        <trkpt lat="29.6774994" lon="104.7367025"><ele>529.32</ele><time>2026-01-09T21:44:54.000Z</time></trkpt>
        <trkpt lat="29.677589" lon="104.7366801"><ele>527.45</ele><time>2026-01-09T21:45:04.000Z</time></trkpt>
        <trkpt lat="29.6776532" lon="104.7366178"><ele>526.19</ele><time>2026-01-09T21:45:26.000Z</time></trkpt>
        <trkpt lat="29.6777257" lon="104.7365404"><ele>526.04</ele><time>2026-01-09T21:46:00.000Z</time></trkpt>
        <trkpt lat="29.6777713" lon="104.7364877"><ele>526.08</ele><time>2026-01-09T21:46:06.000Z</time></trkpt>
        <trkpt lat="29.677848" lon="104.7364488"><ele>525.97</ele><time>2026-01-09T21:46:20.000Z</time></trkpt>
        <trkpt lat="29.6779439" lon="104.7364506"><ele>526.44</ele><time>2026-01-09T21:46:32.000Z</time></trkpt>
        <trkpt lat="29.678048" lon="104.7364817"><ele>525.77</ele><time>2026-01-09T21:46:54.000Z</time></trkpt>
        <trkpt lat="29.6781522" lon="104.736512"><ele>525.13</ele><time>2026-01-09T21:47:08.000Z</time></trkpt>
        <trkpt lat="29.6782509" lon="104.7365227"><ele>525.44</ele><time>2026-01-09T21:47:22.000Z</time></trkpt>
        <trkpt lat="29.67834" lon="104.736574"><ele>526.04</ele><time>2026-01-09T21:47:36.000Z</time></trkpt>
        <trkpt lat="29.6784088" lon="104.7366589"><ele>526.46</ele><time>2026-01-09T21:47:46.000Z</time></trkpt>
        <trkpt lat="29.6784545" lon="104.7367671"><ele>526.89</ele><time>2026-01-09T21:47:58.000Z</time></trkpt>
        <trkpt lat="29.6784855" lon="104.7368749"><ele>525.77</ele><time>2026-01-09T21:48:10.000Z</time></trkpt>
        <trkpt lat="29.6785199" lon="104.7369747"><ele>524.89</ele><time>2026-01-09T21:48:32.000Z</time></trkpt>
        <trkpt lat="29.6785667" lon="104.7369882"><ele>523.12</ele><time>2026-01-09T21:48:40.000Z</time></trkpt>
        <trkpt lat="29.6786584" lon="104.7369401"><ele>521.68</ele><time>2026-01-09T21:49:50.000Z</time></trkpt>
        <trkpt lat="29.6787648" lon="104.736947"><ele>520.29</ele><time>2026-01-09T21:50:04.000Z</time></trkpt>
        <trkpt lat="29.678843" lon="104.7369834"><ele>520.02</ele><time>2026-01-09T21:50:16.000Z</time></trkpt>
        <trkpt lat="29.6789194" lon="104.7370453"><ele>519.71</ele><time>2026-01-09T21:50:35.000Z</time></trkpt>
        <trkpt lat="29.6789496" lon="104.737102"><ele>520.41</ele><time>2026-01-09T21:50:43.000Z</time></trkpt>
        <trkpt lat="29.6789849" lon="104.7371945"><ele>520.82</ele><time>2026-01-09T21:51:41.000Z</time></trkpt>
        <trkpt lat="29.6789949" lon="104.7372548"><ele>520.63</ele><time>2026-01-09T21:51:49.000Z</time></trkpt>
        <trkpt lat="29.6790315" lon="104.7373403"><ele>520.96</ele><time>2026-01-09T21:53:03.000Z</time></trkpt>
        <trkpt lat="29.6791347" lon="104.7373564"><ele>521.8</ele><time>2026-01-09T21:53:13.000Z</time></trkpt>
        <trkpt lat="29.6791966" lon="104.737325"><ele>522.12</ele><time>2026-01-09T21:53:21.000Z</time></trkpt>
        <trkpt lat="29.6791383" lon="104.7373605"><ele>522.67</ele><time>2026-01-09T21:53:51.000Z</time></trkpt>
        <trkpt lat="29.6790393" lon="104.7373315"><ele>523.17</ele><time>2026-01-09T21:54:03.000Z</time></trkpt>
        <trkpt lat="29.6789408" lon="104.7373321"><ele>523.59</ele><time>2026-01-09T21:54:25.000Z</time></trkpt>
        <trkpt lat="29.6789127" lon="104.7374178"><ele>525.4</ele><time>2026-01-09T21:54:39.000Z</time></trkpt>
        <trkpt lat="29.6788779" lon="104.7375229"><ele>527.03</ele><time>2026-01-09T21:54:49.000Z</time></trkpt>
        <trkpt lat="29.6788237" lon="104.7376216"><ele>527.72</ele><time>2026-01-09T21:54:59.000Z</time></trkpt>
        <trkpt lat="29.6788012" lon="104.737733"><ele>527.9</ele><time>2026-01-09T21:55:09.000Z</time></trkpt>
        <trkpt lat="29.6788468" lon="104.7378245"><ele>526.78</ele><time>2026-01-09T21:55:17.000Z</time></trkpt>
        <trkpt lat="29.6789435" lon="104.7378436"><ele>526.18</ele><time>2026-01-09T21:55:29.000Z</time></trkpt>
        <trkpt lat="29.6790486" lon="104.7378542"><ele>525.97</ele><time>2026-01-09T21:55:43.000Z</time></trkpt>
        <trkpt lat="29.6790451" lon="104.7379188"><ele>526.43</ele><time>2026-01-09T21:56:11.000Z</time></trkpt>
        <trkpt lat="29.6789666" lon="104.7379801"><ele>528.58</ele><time>2026-01-09T21:56:29.000Z</time></trkpt>
        <trkpt lat="29.6789066" lon="104.7380721"><ele>529.18</ele><time>2026-01-09T21:56:41.000Z</time></trkpt>
        <trkpt lat="29.67887" lon="104.7381774"><ele>529.72</ele><time>2026-01-09T21:57:07.000Z</time></trkpt>
        <trkpt lat="29.6789032" lon="104.7382681"><ele>530.54</ele><time>2026-01-09T21:57:52.000Z</time></trkpt>
        <trkpt lat="29.678965" lon="104.7382254"><ele>532.08</ele><time>2026-01-09T21:58:22.000Z</time></trkpt>
        <trkpt lat="29.6790471" lon="104.7381582"><ele>534.23</ele><time>2026-01-09T21:58:44.000Z</time></trkpt>
        <trkpt lat="29.679154" lon="104.7381352"><ele>536.09</ele><time>2026-01-09T21:58:56.000Z</time></trkpt>
        <trkpt lat="29.6792265" lon="104.7381505"><ele>538.07</ele><time>2026-01-09T21:59:08.000Z</time></trkpt>
        <trkpt lat="29.6792836" lon="104.7382321"><ele>539.45</ele><time>2026-01-09T21:59:30.000Z</time></trkpt>
        <trkpt lat="29.6793326" lon="104.738332"><ele>541.92</ele><time>2026-01-09T21:59:49.000Z</time></trkpt>
        <trkpt lat="29.6793794" lon="104.7384413"><ele>545.07</ele><time>2026-01-09T22:00:17.000Z</time></trkpt>
        <trkpt lat="29.6793861" lon="104.7385554"><ele>548.92</ele><time>2026-01-09T22:00:33.000Z</time></trkpt>
        <trkpt lat="29.6793864" lon="104.738669"><ele>552.39</ele><time>2026-01-09T22:00:49.000Z</time></trkpt>
        <trkpt lat="29.6794507" lon="104.7386145"><ele>554.89</ele><time>2026-01-09T22:01:55.000Z</time></trkpt>
        <trkpt lat="29.6795334" lon="104.7386575"><ele>557.82</ele><time>2026-01-09T22:03:06.000Z</time></trkpt>
        <trkpt lat="29.6796302" lon="104.738643"><ele>561.97</ele><time>2026-01-09T22:03:24.000Z</time></trkpt>
        <trkpt lat="29.6797006" lon="104.738573"><ele>564.94</ele><time>2026-01-09T22:04:54.000Z</time></trkpt>
        <trkpt lat="29.6797906" lon="104.7385271"><ele>567.6</ele><time>2026-01-09T22:05:12.000Z</time></trkpt>
        <trkpt lat="29.6798886" lon="104.7384972"><ele>570.26</ele><time>2026-01-09T22:05:48.000Z</time></trkpt>
        <trkpt lat="29.6799747" lon="104.7384447"><ele>573.11</ele><time>2026-01-09T22:06:10.000Z</time></trkpt>
        <trkpt lat="29.6800631" lon="104.7384082"><ele>575.54</ele><time>2026-01-09T22:06:24.000Z</time></trkpt>
        <trkpt lat="29.6801517" lon="104.7383572"><ele>577.6</ele><time>2026-01-09T22:06:42.000Z</time></trkpt>
        <trkpt lat="29.6802415" lon="104.7383156"><ele>579.92</ele><time>2026-01-09T22:07:41.000Z</time></trkpt>
        <trkpt lat="29.6803307" lon="104.7382927"><ele>584.25</ele><time>2026-01-09T22:07:57.000Z</time></trkpt>
        <trkpt lat="29.6804311" lon="104.7382968"><ele>587.42</ele><time>2026-01-09T22:08:13.000Z</time></trkpt>
        <trkpt lat="29.680528" lon="104.7383228"><ele>590.19</ele><time>2026-01-09T22:08:27.000Z</time></trkpt>
        <trkpt lat="29.6806253" lon="104.7383506"><ele>591.86</ele><time>2026-01-09T22:08:39.000Z</time></trkpt>
        <trkpt lat="29.6807243" lon="104.7383839"><ele>593.39</ele><time>2026-01-09T22:08:51.000Z</time></trkpt>
        <trkpt lat="29.6808208" lon="104.7384059"><ele>594.7</ele><time>2026-01-09T22:09:31.000Z</time></trkpt>
        <trkpt lat="29.6809237" lon="104.738416"><ele>594.69</ele><time>2026-01-09T22:10:26.000Z</time></trkpt>
        <trkpt lat="29.6810229" lon="104.7384164"><ele>594.62</ele><time>2026-01-09T22:10:38.000Z</time></trkpt>
        <trkpt lat="29.6811221" lon="104.7384065"><ele>595</ele><time>2026-01-09T22:10:52.000Z</time></trkpt>
        <trkpt lat="29.6812181" lon="104.7384175"><ele>595.22</ele><time>2026-01-09T22:11:48.000Z</time></trkpt>
        <trkpt lat="29.6813137" lon="104.7384173"><ele>596.47</ele><time>2026-01-09T22:12:02.000Z</time></trkpt>
        <trkpt lat="29.6814127" lon="104.7384285"><ele>597.48</ele><time>2026-01-09T22:12:48.000Z</time></trkpt>
        <trkpt lat="29.6815126" lon="104.7384394"><ele>598.65</ele><time>2026-01-09T22:13:01.000Z</time></trkpt>
        <trkpt lat="29.6815936" lon="104.73849"><ele>600.96</ele><time>2026-01-09T22:14:47.000Z</time></trkpt>
        <trkpt lat="29.6816698" lon="104.7385624"><ele>603.91</ele><time>2026-01-09T22:15:39.000Z</time></trkpt>
        <trkpt lat="29.6816897" lon="104.7386032"><ele>607.66</ele><time>2026-01-09T22:15:49.000Z</time></trkpt>
        <trkpt lat="29.6817579" lon="104.7386609"><ele>609.13</ele><time>2026-01-09T22:18:18.000Z</time></trkpt>
        <trkpt lat="29.6818252" lon="104.7387331"><ele>615.56</ele><time>2026-01-09T22:18:33.000Z</time></trkpt>
        <trkpt lat="29.6819095" lon="104.7387701"><ele>620.8</ele><time>2026-01-09T22:18:49.000Z</time></trkpt>
        <trkpt lat="29.6820071" lon="104.7387853"><ele>624.78</ele><time>2026-01-09T22:19:11.000Z</time></trkpt>
        <trkpt lat="29.6821047" lon="104.7388113"><ele>627.28</ele><time>2026-01-09T22:19:25.000Z</time></trkpt>
        <trkpt lat="29.682205" lon="104.7388004"><ele>629.64</ele><time>2026-01-09T22:19:41.000Z</time></trkpt>
        <trkpt lat="29.6823" lon="104.7387834"><ele>631.27</ele><time>2026-01-09T22:19:53.000Z</time></trkpt>
        <trkpt lat="29.6823903" lon="104.7387433"><ele>632.96</ele><time>2026-01-09T22:20:05.000Z</time></trkpt>
        <trkpt lat="29.6824815" lon="104.7387323"><ele>633.11</ele><time>2026-01-09T22:20:15.000Z</time></trkpt>
        <trkpt lat="29.6825805" lon="104.7387153"><ele>631.61</ele><time>2026-01-09T22:20:27.000Z</time></trkpt>
        <trkpt lat="29.6826897" lon="104.7387071"><ele>630.53</ele><time>2026-01-09T22:20:39.000Z</time></trkpt>
        <trkpt lat="29.682787" lon="104.7387207"><ele>630.73</ele><time>2026-01-09T22:20:51.000Z</time></trkpt>
        <trkpt lat="29.6828721" lon="104.7386909"><ele>630.34</ele><time>2026-01-09T22:27:07.000Z</time></trkpt>
        <trkpt lat="29.6829699" lon="104.7386589"><ele>630.22</ele><time>2026-01-09T22:27:25.000Z</time></trkpt>
        <trkpt lat="29.683061" lon="104.7386344"><ele>629.98</ele><time>2026-01-09T22:27:39.000Z</time></trkpt>
        <trkpt lat="29.6831557" lon="104.7386276"><ele>630.51</ele><time>2026-01-09T22:27:57.000Z</time></trkpt>
        <trkpt lat="29.6832428" lon="104.7386842"><ele>630.44</ele><time>2026-01-09T22:30:13.000Z</time></trkpt>
        <trkpt lat="29.6833266" lon="104.738739"><ele>629.94</ele><time>2026-01-09T22:30:29.000Z</time></trkpt>
        <trkpt lat="29.683398" lon="104.738807"><ele>630.01</ele><time>2026-01-09T22:30:43.000Z</time></trkpt>
        <trkpt lat="29.6834177" lon="104.7389065"><ele>630.2</ele><time>2026-01-09T22:31:09.000Z</time></trkpt>
        <trkpt lat="29.683425" lon="104.7390176"><ele>631.92</ele><time>2026-01-09T22:31:23.000Z</time></trkpt>
        <trkpt lat="29.6834028" lon="104.739131"><ele>633.95</ele><time>2026-01-09T22:31:41.000Z</time></trkpt>
        <trkpt lat="29.6834617" lon="104.7391466"><ele>635.72</ele><time>2026-01-09T22:32:18.000Z</time></trkpt>
        <trkpt lat="29.6835381" lon="104.7390846"><ele>636.09</ele><time>2026-01-09T22:32:36.000Z</time></trkpt>
        <trkpt lat="29.6836233" lon="104.7390197"><ele>636.61</ele><time>2026-01-09T22:32:50.000Z</time></trkpt>
        <trkpt lat="29.6837167" lon="104.7389745"><ele>637.07</ele><time>2026-01-09T22:33:18.000Z</time></trkpt>
        <trkpt lat="29.6838044" lon="104.7389242"><ele>636.7</ele><time>2026-01-09T22:33:38.000Z</time></trkpt>
        <trkpt lat="29.6838949" lon="104.7389125"><ele>636.41</ele><time>2026-01-09T22:34:10.000Z</time></trkpt>
        <trkpt lat="29.6839768" lon="104.7388735"><ele>635.5</ele><time>2026-01-09T22:35:00.000Z</time></trkpt>
        <trkpt lat="29.6840417" lon="104.7388037"><ele>636.87</ele><time>2026-01-09T22:35:20.000Z</time></trkpt>
        <trkpt lat="29.684083" lon="104.7387074"><ele>637.26</ele><time>2026-01-09T22:35:42.000Z</time></trkpt>
        <trkpt lat="29.6841183" lon="104.7385978"><ele>636.47</ele><time>2026-01-09T22:36:10.000Z</time></trkpt>
        <trkpt lat="29.6841507" lon="104.7384926"><ele>636.17</ele><time>2026-01-09T22:38:50.000Z</time></trkpt>
        <trkpt lat="29.6842159" lon="104.7384046"><ele>637.53</ele><time>2026-01-09T22:40:16.000Z</time></trkpt>
        <trkpt lat="29.6842769" lon="104.73832"><ele>638.97</ele><time>2026-01-09T22:40:26.000Z</time></trkpt>
        <trkpt lat="29.68424" lon="104.7382545"><ele>638.34</ele><time>2026-01-09T22:40:40.000Z</time></trkpt>
        <trkpt lat="29.6841686" lon="104.7381867"><ele>637.89</ele><time>2026-01-09T22:41:06.000Z</time></trkpt>
        <trkpt lat="29.6840771" lon="104.7381607"><ele>636.45</ele><time>2026-01-09T22:41:22.000Z</time></trkpt>
        <trkpt lat="29.6840119" lon="104.7380756"><ele>634.69</ele><time>2026-01-09T22:41:48.000Z</time></trkpt>
        <trkpt lat="29.6840272" lon="104.7379737"><ele>634.24</ele><time>2026-01-09T22:42:04.000Z</time></trkpt>
        <trkpt lat="29.6840164" lon="104.7378659"><ele>633.27</ele><time>2026-01-09T22:42:50.000Z</time></trkpt>
        <trkpt lat="29.6839394" lon="104.7377969"><ele>632.35</ele><time>2026-01-09T22:46:57.000Z</time></trkpt>
        <trkpt lat="29.6839207" lon="104.737692"><ele>632.68</ele><time>2026-01-09T22:47:11.000Z</time></trkpt>
        <trkpt lat="29.6838847" lon="104.7375948"><ele>632.89</ele><time>2026-01-09T22:47:33.000Z</time></trkpt>
        <trkpt lat="29.6838425" lon="104.7374953"><ele>632.3</ele><time>2026-01-09T22:47:53.000Z</time></trkpt>
        <trkpt lat="29.6838245" lon="104.7373917"><ele>631.97</ele><time>2026-01-09T22:48:07.000Z</time></trkpt>
        <trkpt lat="29.6838193" lon="104.7372872"><ele>630.75</ele><time>2026-01-09T22:49:03.000Z</time></trkpt>
        <trkpt lat="29.6838041" lon="104.737181"><ele>629.95</ele><time>2026-01-09T22:49:15.000Z</time></trkpt>
        <trkpt lat="29.6837948" lon="104.7370768"><ele>630.2</ele><time>2026-01-09T22:50:21.000Z</time></trkpt>
        <trkpt lat="29.683802" lon="104.7369578"><ele>629.8</ele><time>2026-01-09T22:50:40.000Z</time></trkpt>
        <trkpt lat="29.6837678" lon="104.7368583"><ele>629.98</ele><time>2026-01-09T22:52:58.000Z</time></trkpt>
        <trkpt lat="29.6837476" lon="104.7367458"><ele>631.72</ele><time>2026-01-09T22:53:40.000Z</time></trkpt>
        <trkpt lat="29.6836933" lon="104.7366481"><ele>632.46</ele><time>2026-01-09T22:54:18.000Z</time></trkpt>
        <trkpt lat="29.6836317" lon="104.7365444"><ele>633.43</ele><time>2026-01-09T22:54:28.000Z</time></trkpt>
        <trkpt lat="29.6836038" lon="104.7364283"><ele>634.04</ele><time>2026-01-09T22:54:42.000Z</time></trkpt>
        <trkpt lat="29.6835403" lon="104.7363475"><ele>631.17</ele><time>2026-01-09T22:55:04.000Z</time></trkpt>
        <trkpt lat="29.6834479" lon="104.7363235"><ele>631.44</ele><time>2026-01-09T22:55:26.000Z</time></trkpt>
        <trkpt lat="29.6833538" lon="104.7363423"><ele>631.22</ele><time>2026-01-09T22:55:56.000Z</time></trkpt>
        <trkpt lat="29.683261" lon="104.7363325"><ele>632.11</ele><time>2026-01-09T22:56:50.000Z</time></trkpt>
        <trkpt lat="29.6831714" lon="104.7362961"><ele>633.65</ele><time>2026-01-09T22:58:00.000Z</time></trkpt>
        <trkpt lat="29.6830853" lon="104.7362592"><ele>634.91</ele><time>2026-01-09T22:58:12.000Z</time></trkpt>
        <trkpt lat="29.682989" lon="104.7362311"><ele>635.03</ele><time>2026-01-09T22:58:26.000Z</time></trkpt>
        <trkpt lat="29.6828974" lon="104.7362121"><ele>635.44</ele><time>2026-01-09T22:58:38.000Z</time></trkpt>
        <trkpt lat="29.682802" lon="104.7361833"><ele>636.33</ele><time>2026-01-09T22:58:50.000Z</time></trkpt>
        <trkpt lat="29.6827141" lon="104.7361417"><ele>637.27</ele><time>2026-01-09T22:59:00.000Z</time></trkpt>
        <trkpt lat="29.6826341" lon="104.7360828"><ele>638.2</ele><time>2026-01-09T22:59:18.000Z</time></trkpt>
        <trkpt lat="29.6825611" lon="104.7360167"><ele>637.57</ele><time>2026-01-09T22:59:28.000Z</time></trkpt>
        <trkpt lat="29.6824899" lon="104.7359455"><ele>637.7</ele><time>2026-01-09T22:59:40.000Z</time></trkpt>
        <trkpt lat="29.6824223" lon="104.735859"><ele>637.39</ele><time>2026-01-09T23:00:04.000Z</time></trkpt>
        <trkpt lat="29.6823502" lon="104.7357795"><ele>638.47</ele><time>2026-01-09T23:00:14.000Z</time></trkpt>
        <trkpt lat="29.6822513" lon="104.7357429"><ele>639.34</ele><time>2026-01-09T23:00:26.000Z</time></trkpt>
        <trkpt lat="29.6821483" lon="104.735718"><ele>640.65</ele><time>2026-01-09T23:00:38.000Z</time></trkpt>
        <trkpt lat="29.6820639" lon="104.7356604"><ele>641.41</ele><time>2026-01-09T23:00:50.000Z</time></trkpt>
        <trkpt lat="29.681978" lon="104.7355938"><ele>641.74</ele><time>2026-01-09T23:01:02.000Z</time></trkpt>
        <trkpt lat="29.681901" lon="104.7355286"><ele>640.45</ele><time>2026-01-09T23:01:12.000Z</time></trkpt>
        <trkpt lat="29.6818145" lon="104.7354827"><ele>639.48</ele><time>2026-01-09T23:01:22.000Z</time></trkpt>
        <trkpt lat="29.6817309" lon="104.7354289"><ele>639.46</ele><time>2026-01-09T23:01:34.000Z</time></trkpt>
        <trkpt lat="29.681651" lon="104.7353607"><ele>637.56</ele><time>2026-01-09T23:01:46.000Z</time></trkpt>
        <trkpt lat="29.6815683" lon="104.7353085"><ele>635.83</ele><time>2026-01-09T23:02:00.000Z</time></trkpt>
        <trkpt lat="29.6815142" lon="104.7352158"><ele>634.82</ele><time>2026-01-09T23:02:12.000Z</time></trkpt>
        <trkpt lat="29.6815084" lon="104.7351867"><ele>634.19</ele><time>2026-01-09T23:02:14.000Z</time></trkpt>
        <trkpt lat="29.6814716" lon="104.7352516"><ele>633.86</ele><time>2026-01-09T23:02:34.000Z</time></trkpt>
        <trkpt lat="29.6814587" lon="104.735282"><ele>631.72</ele><time>2026-01-09T23:02:36.000Z</time></trkpt>
        <trkpt lat="29.6813906" lon="104.7352951"><ele>630.45</ele><time>2026-01-09T23:03:02.000Z</time></trkpt>
        <trkpt lat="29.6812844" lon="104.7352864"><ele>629</ele><time>2026-01-09T23:04:08.000Z</time></trkpt>
        <trkpt lat="29.6811909" lon="104.7352726"><ele>627.8</ele><time>2026-01-09T23:04:36.000Z</time></trkpt>
        <trkpt lat="29.68109" lon="104.7352437"><ele>627.43</ele><time>2026-01-09T23:04:50.000Z</time></trkpt>
        <trkpt lat="29.6810627" lon="104.7352403"><ele>626.81</ele><time>2026-01-09T23:04:52.000Z</time></trkpt>
        <trkpt lat="29.6809883" lon="104.7352365"><ele>626.39</ele><time>2026-01-09T23:05:38.000Z</time></trkpt>
        <trkpt lat="29.6809023" lon="104.735252"><ele>625.43</ele><time>2026-01-09T23:06:10.000Z</time></trkpt>
        <trkpt lat="29.6808152" lon="104.7352312"><ele>624.8</ele><time>2026-01-09T23:06:38.000Z</time></trkpt>
        <trkpt lat="29.680715" lon="104.7352087"><ele>623.17</ele><time>2026-01-09T23:06:58.000Z</time></trkpt>
        <trkpt lat="29.680619" lon="104.7351776"><ele>622.51</ele><time>2026-01-09T23:07:12.000Z</time></trkpt>
        <trkpt lat="29.6805268" lon="104.7351491"><ele>622.05</ele><time>2026-01-09T23:07:40.000Z</time></trkpt>
        <trkpt lat="29.6804394" lon="104.7351905"><ele>617.27</ele><time>2026-01-09T23:08:52.000Z</time></trkpt>
        <trkpt lat="29.6803464" lon="104.7351906"><ele>613.99</ele><time>2026-01-09T23:09:36.000Z</time></trkpt>
        <trkpt lat="29.6802525" lon="104.7351929"><ele>611.34</ele><time>2026-01-09T23:09:48.000Z</time></trkpt>
        <trkpt lat="29.6801573" lon="104.7352068"><ele>610.13</ele><time>2026-01-09T23:09:58.000Z</time></trkpt>
        <trkpt lat="29.6800621" lon="104.7352209"><ele>610.07</ele><time>2026-01-09T23:10:14.000Z</time></trkpt>
        <trkpt lat="29.6799764" lon="104.735167"><ele>608.93</ele><time>2026-01-09T23:10:28.000Z</time></trkpt>
        <trkpt lat="29.6799521" lon="104.7350914"><ele>610.27</ele><time>2026-01-09T23:10:38.000Z</time></trkpt>
        <trkpt lat="29.6799309" lon="104.734984"><ele>611.26</ele><time>2026-01-09T23:10:56.000Z</time></trkpt>
        <trkpt lat="29.6799391" lon="104.7349435"><ele>611.23</ele><time>2026-01-09T23:10:58.000Z</time></trkpt>
        <trkpt lat="29.6799478" lon="104.734848"><ele>611.2</ele><time>2026-01-09T23:11:38.000Z</time></trkpt>
        <trkpt lat="29.6798809" lon="104.734763"><ele>609.63</ele><time>2026-01-09T23:13:00.000Z</time></trkpt>
        <trkpt lat="29.6798273" lon="104.7346756"><ele>607.08</ele><time>2026-01-09T23:13:54.000Z</time></trkpt>
        <trkpt lat="29.6797687" lon="104.7345943"><ele>603.79</ele><time>2026-01-09T23:14:48.000Z</time></trkpt>
        <trkpt lat="29.6796869" lon="104.7345218"><ele>601.88</ele><time>2026-01-09T23:15:06.000Z</time></trkpt>
        <trkpt lat="29.6796109" lon="104.7344515"><ele>601.12</ele><time>2026-01-09T23:15:20.000Z</time></trkpt>
        <trkpt lat="29.6795551" lon="104.7343692"><ele>601.39</ele><time>2026-01-09T23:15:36.000Z</time></trkpt>
        <trkpt lat="29.6794705" lon="104.7343245"><ele>601.91</ele><time>2026-01-09T23:15:50.000Z</time></trkpt>
        <trkpt lat="29.6793945" lon="104.7342579"><ele>603.24</ele><time>2026-01-09T23:16:22.000Z</time></trkpt>
        <trkpt lat="29.6793103" lon="104.7341984"><ele>604.38</ele><time>2026-01-09T23:16:52.000Z</time></trkpt>
        <trkpt lat="29.6792186" lon="104.7341471"><ele>605.06</ele><time>2026-01-09T23:17:10.000Z</time></trkpt>
        <trkpt lat="29.6790948" lon="104.7341417"><ele>604.58</ele><time>2026-01-09T23:18:17.000Z</time></trkpt>
        <trkpt lat="29.6789922" lon="104.734168"><ele>605.56</ele><time>2026-01-09T23:18:25.000Z</time></trkpt>
        <trkpt lat="29.6788978" lon="104.7342104"><ele>605.98</ele><time>2026-01-09T23:18:35.000Z</time></trkpt>
        <trkpt lat="29.678903" lon="104.7342042"><ele>606.42</ele><time>2026-01-09T23:18:37.000Z</time></trkpt>
        <trkpt lat="29.678842" lon="104.7342226"><ele>605.06</ele><time>2026-01-09T23:18:51.000Z</time></trkpt>
        <trkpt lat="29.6787563" lon="104.7342365"><ele>605.41</ele><time>2026-01-09T23:19:03.000Z</time></trkpt>
        <trkpt lat="29.6786669" lon="104.7342117"><ele>605.67</ele><time>2026-01-09T23:19:17.000Z</time></trkpt>
        <trkpt lat="29.6785764" lon="104.7341776"><ele>605.82</ele><time>2026-01-09T23:20:11.000Z</time></trkpt>
        <trkpt lat="29.6785282" lon="104.7342455"><ele>605.25</ele><time>2026-01-09T23:20:29.000Z</time></trkpt>
        <trkpt lat="29.678451" lon="104.7343078"><ele>603.28</ele><time>2026-01-09T23:21:13.000Z</time></trkpt>
        <trkpt lat="29.6783724" lon="104.7343818"><ele>600.85</ele><time>2026-01-09T23:21:21.000Z</time></trkpt>
        <trkpt lat="29.6783004" lon="104.7344652"><ele>599.63</ele><time>2026-01-09T23:21:35.000Z</time></trkpt>
        <trkpt lat="29.6782413" lon="104.7345514"><ele>599.37</ele><time>2026-01-09T23:22:05.000Z</time></trkpt>
        <trkpt lat="29.678168" lon="104.7346237"><ele>599.43</ele><time>2026-01-09T23:22:51.000Z</time></trkpt>
        <trkpt lat="29.6780981" lon="104.7347012"><ele>597.75</ele><time>2026-01-09T23:23:03.000Z</time></trkpt>
        <trkpt lat="29.678018" lon="104.7347522"><ele>595.41</ele><time>2026-01-09T23:23:21.000Z</time></trkpt>
        <trkpt lat="29.6779272" lon="104.7348038"><ele>592.19</ele><time>2026-01-09T23:23:49.000Z</time></trkpt>
        <trkpt lat="29.677846" lon="104.7348478"><ele>588.71</ele><time>2026-01-09T23:24:03.000Z</time></trkpt>
        <trkpt lat="29.6777605" lon="104.7349029"><ele>586.49</ele><time>2026-01-09T23:25:00.000Z</time></trkpt>
        <trkpt lat="29.6776723" lon="104.734954"><ele>582.86</ele><time>2026-01-09T23:25:12.000Z</time></trkpt>
        <trkpt lat="29.6775827" lon="104.7349413"><ele>577.92</ele><time>2026-01-09T23:26:02.000Z</time></trkpt>
        <trkpt lat="29.677494" lon="104.7349695"><ele>575.65</ele><time>2026-01-09T23:26:28.000Z</time></trkpt>
        <trkpt lat="29.6773972" lon="104.7349844"><ele>574.25</ele><time>2026-01-09T23:26:40.000Z</time></trkpt>
        <trkpt lat="29.6773144" lon="104.7349403"><ele>572.38</ele><time>2026-01-09T23:27:40.000Z</time></trkpt>
        <trkpt lat="29.6772286" lon="104.7348938"><ele>571.5</ele><time>2026-01-09T23:28:14.000Z</time></trkpt>
        <trkpt lat="29.6771462" lon="104.734845"><ele>570.14</ele><time>2026-01-09T23:28:36.000Z</time></trkpt>
        <trkpt lat="29.6770505" lon="104.7348358"><ele>568.77</ele><time>2026-01-09T23:28:58.000Z</time></trkpt>
        <trkpt lat="29.6769899" lon="104.734907"><ele>567.21</ele><time>2026-01-09T23:29:12.000Z</time></trkpt>
        <trkpt lat="29.6769499" lon="104.7350202"><ele>565</ele><time>2026-01-09T23:29:30.000Z</time></trkpt>
        <trkpt lat="29.676903" lon="104.7351353"><ele>562.3</ele><time>2026-01-09T23:29:48.000Z</time></trkpt>
        <trkpt lat="29.6768473" lon="104.7352278"><ele>559.17</ele><time>2026-01-09T23:30:02.000Z</time></trkpt>
        <trkpt lat="29.6767716" lon="104.7352897"><ele>556.17</ele><time>2026-01-09T23:30:28.000Z</time></trkpt>
        <trkpt lat="29.676682" lon="104.7353456"><ele>554</ele><time>2026-01-09T23:30:42.000Z</time></trkpt>
        <trkpt lat="29.6766152" lon="104.7354192"><ele>551.51</ele><time>2026-01-09T23:30:56.000Z</time></trkpt>
        <trkpt lat="29.6765284" lon="104.7354163"><ele>548.74</ele><time>2026-01-09T23:31:34.000Z</time></trkpt>
        <trkpt lat="29.6764353" lon="104.735355"><ele>547.57</ele><time>2026-01-09T23:33:06.000Z</time></trkpt>
        <trkpt lat="29.6763527" lon="104.7354011"><ele>547.61</ele><time>2026-01-09T23:33:32.000Z</time></trkpt>
        <trkpt lat="29.6762952" lon="104.7354877"><ele>547.54</ele><time>2026-01-09T23:33:50.000Z</time></trkpt>
        <trkpt lat="29.6762456" lon="104.7355798"><ele>547.51</ele><time>2026-01-09T23:34:04.000Z</time></trkpt>
        <trkpt lat="29.6761993" lon="104.7356724"><ele>547.53</ele><time>2026-01-09T23:34:16.000Z</time></trkpt>
        <trkpt lat="29.6761415" lon="104.7357635"><ele>547.63</ele><time>2026-01-09T23:34:28.000Z</time></trkpt>
        <trkpt lat="29.676071" lon="104.7358492"><ele>547.22</ele><time>2026-01-09T23:34:42.000Z</time></trkpt>
        <trkpt lat="29.676071" lon="104.7358492"><ele>547.22</ele><time>2026-01-09T23:35:13.000Z</time></trkpt>
      </trkseg>
  </trk>
</gpx>